createdAt,value
2018-01-11T00:00:54.469Z,94.77
2018-01-11T00:03:29.746Z,96.83
2018-01-11T00:05:58.057Z,97.72
2018-01-11T00:08:26.406Z,97.83
2018-01-11T00:10:54.719Z,97.18
2018-01-11T00:13:24.237Z,97.03
2018-01-11T00:15:52.563Z,96.45
2018-01-11T00:18:20.909Z,95.95
2018-01-11T00:20:49.246Z,95.69
2018-01-11T00:23:17.590Z,95.02
2018-01-11T00:25:45.906Z,94.77
2018-01-11T00:28:14.254Z,94.48
2018-01-11T00:30:42.584Z,94.48
2018-01-11T00:33:11.698Z,94.26
2018-01-11T00:35:40.041Z,96.22
2018-01-11T00:38:08.362Z,96.07
2018-01-11T00:40:36.704Z,96.71
2018-01-11T00:43:05.022Z,98.53
2018-01-11T00:45:34.128Z,97.69
2018-01-11T00:48:02.479Z,97.35
2018-01-11T00:50:31.563Z,96.96
2018-01-11T00:52:59.882Z,96.78
2018-01-11T00:55:28.262Z,96.41
2018-01-11T00:57:56.596Z,96.08
2018-01-11T01:00:25.682Z,95.54
2018-01-11T01:02:54.015Z,95.16
2018-01-11T01:05:22.327Z,95.52
2018-01-11T01:07:50.660Z,94.81
2018-01-11T01:10:18.978Z,94.42
2018-01-11T01:12:47.317Z,95.54
2018-01-11T01:15:15.642Z,96.81
2018-01-11T01:17:43.963Z,96.50
2018-01-11T01:20:12.293Z,96.24
2018-01-11T01:22:40.611Z,95.77
2018-01-11T01:25:08.944Z,95.05
2018-01-11T01:27:38.798Z,94.56
2018-01-11T01:30:07.142Z,94.25
2018-01-11T01:32:35.481Z,93.92
2018-01-11T01:35:03.816Z,93.64
2018-01-11T01:37:32.902Z,93.69
2018-01-11T01:40:01.241Z,93.99
2018-01-11T01:42:29.572Z,94.00
2018-01-11T01:44:58.690Z,93.51
2018-01-11T01:47:27.014Z,93.87
2018-01-11T01:49:56.247Z,94.58
2018-01-11T01:52:24.567Z,94.93
2018-01-11T01:54:52.881Z,95.38
2018-01-11T01:57:21.206Z,94.94
2018-01-11T01:59:49.533Z,94.53
2018-01-11T02:02:17.853Z,94.69
2018-01-11T02:04:46.189Z,94.35
2018-01-11T02:07:14.490Z,94.46
2018-01-11T02:09:42.806Z,94.50
2018-01-11T02:12:11.118Z,95.12
2018-01-11T02:14:39.438Z,95.29
2018-01-11T02:17:07.764Z,95.81
2018-01-11T02:19:36.194Z,95.56
2018-01-11T02:22:04.525Z,96.12
2018-01-11T02:24:32.838Z,95.71
2018-01-11T02:27:01.172Z,95.49
2018-01-11T02:29:30.127Z,95.39
2018-01-11T02:32:03.672Z,94.99
2018-01-11T02:34:31.994Z,95.71
2018-01-11T02:37:00.317Z,95.46
2018-01-11T02:39:28.654Z,95.25
2018-01-11T02:41:56.966Z,95.09
2018-01-11T02:44:25.871Z,94.46
2018-01-11T02:46:57.104Z,94.36
2018-01-11T02:49:25.444Z,94.21
2018-01-11T02:51:53.777Z,94.07
2018-01-11T02:54:22.154Z,93.88
2018-01-11T02:56:50.479Z,94.04
2018-01-11T02:59:18.812Z,93.91
2018-01-11T03:01:47.890Z,94.12
2018-01-11T03:04:16.216Z,94.27
2018-01-11T03:06:44.556Z,94.86
2018-01-11T03:09:12.896Z,94.97
2018-01-11T03:11:41.234Z,96.49
2018-01-11T03:14:09.577Z,97.30
2018-01-11T03:16:37.890Z,96.92
2018-01-11T03:19:06.408Z,96.90
2018-01-11T03:21:34.740Z,98.00
2018-01-11T03:24:03.081Z,98.67
2018-01-11T03:26:31.395Z,99.50
2018-01-11T03:28:59.723Z,99.63
2018-01-11T03:31:28.057Z,98.87
2018-01-11T03:33:57.142Z,97.88
2018-01-11T03:36:26.218Z,97.12
2018-01-11T03:38:54.557Z,96.84
2018-01-11T03:41:22.882Z,96.34
2018-01-11T03:43:51.203Z,95.88
2018-01-11T03:46:19.514Z,95.80
2018-01-11T03:48:47.834Z,95.57
2018-01-11T03:51:16.176Z,94.84
2018-01-11T03:53:44.517Z,94.67
2018-01-11T03:56:12.844Z,94.70
2018-01-11T03:58:41.170Z,94.58
2018-01-11T04:01:10.252Z,94.22
2018-01-11T04:03:38.571Z,94.01
2018-01-11T04:06:06.911Z,93.87
2018-01-11T04:08:35.244Z,94.33
2018-01-11T04:11:03.575Z,94.59
2018-01-11T04:13:31.914Z,95.70
2018-01-11T04:16:01.104Z,95.38
2018-01-11T04:18:29.431Z,95.28
2018-01-11T04:20:57.805Z,94.82
2018-01-11T04:23:26.135Z,94.60
2018-01-11T04:25:54.465Z,94.62
2018-01-11T04:28:22.818Z,95.32
2018-01-11T04:30:51.152Z,95.05
2018-01-11T04:33:19.488Z,94.53
2018-01-11T04:35:47.817Z,94.51
2018-01-11T04:38:16.961Z,94.96
2018-01-11T04:40:45.282Z,95.36
2018-01-11T04:43:13.620Z,95.80
2018-01-11T04:45:41.959Z,95.90
2018-01-11T04:48:10.286Z,95.84
2018-01-11T04:50:38.599Z,95.61
2018-01-11T04:53:06.916Z,94.99
2018-01-11T04:55:35.237Z,95.04
2018-01-11T04:58:03.573Z,95.33
2018-01-11T05:00:37.306Z,94.99
2018-01-11T05:03:05.626Z,94.90
2018-01-11T05:05:33.941Z,94.84
2018-01-11T05:08:02.274Z,95.48
2018-01-11T05:10:31.293Z,95.21
2018-01-11T05:12:59.619Z,95.17
2018-01-11T05:15:27.952Z,95.09
2018-01-11T05:17:56.287Z,94.99
2018-01-11T05:20:24.611Z,94.75
2018-01-11T05:22:54.699Z,94.36
2018-01-11T05:25:23.044Z,94.40
2018-01-11T05:27:51.409Z,94.15
2018-01-11T05:30:19.733Z,94.32
2018-01-11T05:32:48.826Z,94.53
2018-01-11T05:35:17.166Z,95.14
2018-01-11T05:37:45.519Z,94.96
2018-01-11T05:40:13.843Z,94.59
2018-01-11T05:42:42.171Z,94.53
2018-01-11T05:45:10.496Z,94.18
2018-01-11T05:47:38.832Z,94.06
2018-01-11T05:50:07.178Z,94.15
2018-01-11T05:52:35.517Z,94.36
2018-01-11T05:55:03.838Z,94.22
2018-01-11T05:57:32.937Z,94.56
2018-01-11T06:00:01.260Z,94.51
2018-01-11T06:02:29.596Z,94.37
2018-01-11T06:04:57.932Z,94.56
2018-01-11T06:07:26.266Z,94.28
2018-01-11T06:09:54.589Z,94.75
2018-01-11T06:12:22.917Z,94.71
2018-01-11T06:14:51.255Z,94.62
2018-01-11T06:17:19.594Z,94.73
2018-01-11T06:19:47.921Z,95.07
2018-01-11T06:22:16.998Z,95.23
2018-01-11T06:24:45.317Z,95.06
2018-01-11T06:27:13.641Z,94.93
2018-01-11T06:29:41.977Z,94.65
2018-01-11T06:32:10.305Z,95.24
2018-01-11T06:34:38.644Z,96.81
2018-01-11T06:37:06.973Z,96.53
2018-01-11T06:39:36.009Z,96.31
2018-01-11T06:42:04.336Z,96.41
2018-01-11T06:44:32.664Z,96.35
2018-01-11T06:47:00.984Z,98.30
2018-01-11T06:49:29.332Z,100.00
2018-01-11T06:51:58.424Z,100.00
2018-01-11T06:54:26.758Z,100.00
2018-01-11T06:56:56.457Z,100.00
2018-01-11T06:59:24.813Z,100.00
2018-01-11T07:01:53.151Z,100.00
2018-01-11T07:04:21.483Z,100.00
2018-01-11T07:06:49.820Z,100.00
2018-01-11T07:09:18.170Z,100.00
2018-01-11T07:11:46.514Z,100.00
2018-01-11T07:14:14.843Z,100.00
2018-01-11T07:16:44.302Z,100.00
2018-01-11T07:19:12.630Z,99.95
2018-01-11T07:21:40.971Z,99.30
2018-01-11T07:24:09.323Z,99.02
2018-01-11T07:26:37.661Z,98.69
2018-01-11T07:29:06.005Z,97.64
2018-01-11T07:31:34.555Z,97.51
2018-01-11T07:34:02.895Z,97.51
2018-01-11T07:36:31.209Z,97.03
2018-01-11T07:38:59.551Z,96.48
2018-01-11T07:41:28.858Z,96.34
2018-01-11T07:43:57.186Z,95.85
2018-01-11T07:46:25.514Z,96.41
2018-01-11T07:48:53.861Z,96.47
2018-01-11T07:51:22.965Z,95.69
2018-01-11T07:53:51.306Z,95.76
2018-01-11T07:56:19.641Z,95.65
2018-01-11T07:58:47.970Z,95.37
2018-01-11T08:01:17.073Z,95.66
2018-01-11T08:03:45.417Z,95.61
2018-01-11T08:06:13.758Z,95.36
2018-01-11T08:08:42.079Z,95.52
2018-01-11T08:11:10.402Z,95.32
2018-01-11T08:13:38.748Z,95.17
2018-01-11T08:16:07.072Z,95.41
2018-01-11T08:18:35.424Z,95.18
2018-01-11T08:21:03.785Z,95.47
2018-01-11T08:23:32.137Z,96.09
2018-01-11T08:26:01.076Z,96.16
2018-01-11T08:28:29.417Z,96.06
2018-01-11T08:30:59.753Z,95.73
2018-01-11T08:33:28.075Z,95.76
2018-01-11T08:35:56.390Z,95.65
2018-01-11T08:38:24.719Z,95.38
2018-01-11T08:40:53.057Z,95.56
2018-01-11T08:43:21.380Z,95.14
2018-01-11T08:45:49.703Z,95.22
2018-01-11T08:48:18.038Z,95.19
2018-01-11T08:50:46.370Z,95.07
2018-01-11T08:53:15.481Z,96.71
2018-01-11T08:55:43.835Z,98.62
2018-01-11T08:58:12.188Z,100.00
2018-01-11T09:00:40.524Z,100.00
2018-01-11T09:03:09.615Z,100.00
2018-01-11T09:05:37.943Z,100.00
2018-01-11T09:08:06.292Z,100.00
2018-01-11T09:10:34.614Z,100.00
2018-01-11T09:13:02.950Z,100.00
2018-01-11T09:15:31.293Z,100.00
2018-01-11T09:17:59.626Z,100.00
2018-01-11T09:20:28.298Z,100.00
2018-01-11T09:22:57.604Z,100.00
2018-01-11T09:25:25.936Z,100.00
2018-01-11T09:27:54.804Z,100.00
2018-01-11T09:30:23.140Z,99.84
2018-01-11T09:32:51.463Z,98.86
2018-01-11T09:35:19.793Z,97.85
2018-01-11T09:37:48.133Z,97.28
2018-01-11T09:40:16.466Z,97.13
2018-01-11T09:42:44.810Z,97.89
2018-01-11T09:45:13.137Z,97.37
2018-01-11T09:47:41.450Z,96.62
2018-01-11T09:50:09.789Z,96.41
2018-01-11T09:52:38.118Z,95.76
2018-01-11T09:55:06.464Z,95.46
2018-01-11T09:57:34.786Z,94.76
2018-01-11T10:00:03.518Z,94.17
2018-01-11T10:02:31.862Z,93.93
2018-01-11T10:05:00.186Z,93.44
2018-01-11T10:07:28.524Z,93.00
2018-01-11T10:09:56.891Z,93.10
2018-01-11T10:12:25.206Z,93.35
2018-01-11T10:14:53.549Z,93.11
2018-01-11T10:17:21.887Z,92.65
2018-01-11T10:19:50.230Z,93.22
2018-01-11T10:22:18.578Z,92.70
2018-01-11T10:24:46.916Z,93.53
2018-01-11T10:27:15.999Z,94.67
2018-01-11T10:29:45.073Z,94.74
2018-01-11T10:32:13.423Z,94.49
2018-01-11T10:34:41.746Z,94.29
2018-01-11T10:37:10.081Z,94.12
2018-01-11T10:39:38.405Z,93.65
2018-01-11T10:42:07.553Z,93.04
2018-01-11T10:44:35.899Z,92.90
2018-01-11T10:47:04.233Z,92.78
2018-01-11T10:49:33.723Z,92.36
2018-01-11T10:52:05.653Z,91.79
2018-01-11T10:54:33.987Z,91.12
2018-01-11T10:57:02.325Z,92.80
2018-01-11T10:59:30.646Z,92.79
2018-01-11T11:02:04.409Z,92.78
2018-01-11T11:04:32.729Z,91.81
2018-01-11T11:07:01.058Z,91.72
2018-01-11T11:09:32.250Z,92.01
2018-01-11T11:12:00.582Z,92.74
2018-01-11T11:14:28.905Z,92.89
2018-01-11T11:16:57.223Z,93.10
2018-01-11T11:19:25.548Z,92.57
2018-01-11T11:21:53.888Z,92.25
2018-01-11T11:24:22.210Z,91.52
2018-01-11T11:26:50.534Z,91.37
2018-01-11T11:29:18.855Z,91.13
2018-01-11T11:31:47.165Z,90.71
2018-01-11T11:34:15.755Z,91.00
2018-01-11T11:36:44.087Z,91.20
2018-01-11T11:39:12.407Z,90.94
2018-01-11T11:41:41.503Z,91.32
2018-01-11T11:44:09.823Z,91.16
2018-01-11T11:46:38.142Z,91.32
2018-01-11T11:49:06.484Z,90.79
2018-01-11T11:51:34.816Z,90.42
2018-01-11T11:54:03.156Z,90.63
2018-01-11T11:56:31.482Z,90.39
2018-01-11T11:58:59.814Z,90.01
2018-01-11T12:01:28.154Z,89.17
2018-01-11T12:03:56.511Z,90.32
2018-01-11T12:06:24.852Z,89.93
2018-01-11T12:08:53.178Z,90.89
2018-01-11T12:11:21.508Z,90.89
2018-01-11T12:13:49.890Z,91.78
2018-01-11T12:16:18.233Z,91.92
2018-01-11T12:18:46.578Z,91.21
2018-01-11T12:21:14.894Z,90.77
2018-01-11T12:23:43.246Z,91.51
2018-01-11T12:26:11.570Z,91.38
2018-01-11T12:28:39.909Z,90.38
2018-01-11T12:31:08.221Z,90.03
2018-01-11T12:33:36.558Z,89.84
2018-01-11T12:36:04.893Z,89.10
2018-01-11T12:38:33.254Z,88.70
2018-01-11T12:41:01.592Z,88.14
2018-01-11T12:43:29.915Z,88.74
2018-01-11T12:45:58.248Z,88.23
2018-01-11T12:48:26.599Z,88.23
2018-01-11T12:50:54.930Z,88.38
2018-01-11T12:53:23.250Z,88.18
2018-01-11T12:55:52.178Z,88.82
2018-01-11T12:58:20.552Z,88.24
2018-01-11T13:00:49.731Z,88.31
2018-01-11T13:03:18.076Z,87.23
2018-01-11T13:05:46.444Z,86.87
2018-01-11T13:08:14.784Z,86.80
2018-01-11T13:10:43.121Z,87.40
2018-01-11T13:13:11.458Z,89.09
2018-01-11T13:15:39.793Z,88.29
2018-01-11T13:18:08.132Z,89.25
2018-01-11T13:20:36.468Z,86.53
2018-01-11T13:23:04.810Z,83.72
2018-01-11T13:25:33.154Z,83.78
2018-01-11T13:28:02.486Z,84.35
2018-01-11T13:30:30.832Z,85.41
2018-01-11T13:33:00.529Z,85.69
2018-01-11T13:35:28.882Z,85.54
2018-01-11T13:37:57.249Z,85.49
2018-01-11T13:40:25.594Z,84.98
2018-01-11T13:42:53.923Z,84.26
2018-01-11T13:45:22.283Z,84.81
2018-01-11T13:47:50.608Z,85.07
2018-01-11T13:50:18.935Z,84.69
2018-01-11T13:52:47.254Z,84.35
2018-01-11T13:55:15.592Z,83.04
2018-01-11T13:57:43.949Z,83.96
2018-01-11T14:00:12.297Z,84.19
2018-01-11T14:02:40.676Z,85.33
2018-01-11T14:05:09.005Z,85.23
2018-01-11T14:07:37.349Z,86.25
2018-01-11T14:10:05.702Z,85.41
2018-01-11T14:12:34.061Z,84.84
2018-01-11T14:15:02.400Z,85.00
2018-01-11T14:17:31.494Z,86.67
2018-01-11T14:19:59.833Z,85.33
2018-01-11T14:22:28.193Z,84.28
2018-01-11T14:24:56.558Z,84.57
2018-01-11T14:27:24.903Z,84.82
2018-01-11T14:29:53.998Z,83.69
2018-01-11T14:32:22.342Z,81.99
2018-01-11T14:34:50.683Z,83.95
2018-01-11T14:37:19.002Z,84.76
2018-01-11T14:39:47.354Z,85.67
2018-01-11T14:42:16.061Z,84.70
2018-01-11T14:44:44.390Z,85.33
2018-01-11T14:47:12.711Z,85.61
2018-01-11T14:49:41.051Z,87.21
2018-01-11T14:52:09.363Z,87.72
2018-01-11T14:54:38.692Z,87.93
2018-01-11T14:57:07.020Z,87.56
2018-01-11T14:59:35.343Z,88.33
2018-01-11T15:02:03.672Z,88.64
2018-01-11T15:04:32.024Z,89.74
2018-01-11T15:07:00.339Z,89.00
2018-01-11T15:09:29.121Z,88.90
2018-01-11T15:11:57.442Z,88.85
2018-01-11T15:14:26.043Z,88.93
2018-01-11T15:16:54.408Z,89.28
2018-01-11T15:19:22.733Z,88.80
2018-01-11T15:21:51.075Z,88.79
2018-01-11T15:24:20.174Z,88.68
2018-01-11T15:26:48.487Z,89.34
2018-01-11T15:29:16.814Z,90.44
2018-01-11T15:31:45.140Z,90.27
2018-01-11T15:34:13.449Z,90.76
2018-01-11T15:36:41.762Z,90.61
2018-01-11T15:39:11.312Z,92.19
2018-01-11T15:41:39.632Z,91.95
2018-01-11T15:44:08.744Z,92.52
2018-01-11T15:46:37.081Z,91.91
2018-01-11T15:49:05.404Z,91.69
2018-01-11T15:51:34.489Z,91.35
2018-01-11T15:54:02.824Z,90.93
2018-01-11T15:56:31.817Z,90.72
2018-01-11T15:59:00.134Z,90.84
2018-01-11T16:01:29.223Z,90.68
2018-01-11T16:03:57.547Z,91.03
2018-01-11T16:06:26.419Z,91.50
2018-01-11T16:08:54.760Z,91.43
2018-01-11T16:11:23.096Z,91.51
2018-01-11T16:13:51.641Z,94.60
2018-01-11T16:16:20.737Z,95.15
2018-01-11T16:18:49.080Z,97.08
2018-01-11T16:21:17.413Z,96.33
2018-01-11T16:23:47.309Z,95.90
2018-01-11T16:26:15.666Z,95.26
2018-01-11T16:28:44.779Z,94.45
2018-01-11T16:31:13.112Z,93.66
2018-01-11T16:33:41.447Z,93.51
2018-01-11T16:36:09.763Z,93.28
2018-01-11T16:38:38.111Z,94.11
2018-01-11T16:41:06.435Z,93.96
2018-01-11T16:43:34.782Z,93.82
2018-01-11T16:46:03.161Z,93.40
2018-01-11T16:48:31.487Z,93.16
2018-01-11T16:50:59.833Z,93.17
2018-01-11T16:53:28.162Z,92.87
2018-01-11T16:55:56.497Z,92.55
2018-01-11T16:58:24.839Z,93.17
2018-01-11T17:00:53.164Z,92.54
2018-01-11T17:03:21.512Z,92.45
2018-01-11T17:05:49.847Z,92.79
2018-01-11T17:08:18.166Z,93.47
2018-01-11T17:10:46.500Z,93.53
2018-01-11T17:13:15.590Z,92.99
2018-01-11T17:15:43.927Z,92.42
2018-01-11T17:18:12.261Z,92.45
2018-01-11T17:20:40.597Z,92.41
2018-01-11T17:23:08.925Z,92.49
2018-01-11T17:25:37.260Z,92.60
2018-01-11T17:28:05.625Z,92.75
2018-01-11T17:30:33.971Z,92.57
2018-01-11T17:33:02.327Z,92.50
2018-01-11T17:35:30.660Z,94.93
2018-01-11T17:37:58.998Z,95.58
2018-01-11T17:40:27.323Z,96.54
2018-01-11T17:42:55.652Z,96.34
2018-01-11T17:45:24.034Z,97.61
2018-01-11T17:47:52.361Z,96.46
2018-01-11T17:50:22.225Z,95.82
2018-01-11T17:52:51.297Z,95.03
2018-01-11T17:55:19.621Z,94.57
2018-01-11T17:57:48.004Z,95.32
2018-01-11T18:00:17.822Z,96.39
2018-01-11T18:02:46.144Z,96.77
2018-01-11T18:05:14.482Z,96.40
2018-01-11T18:07:42.817Z,96.15
2018-01-11T18:10:11.163Z,95.60
2018-01-11T18:12:39.496Z,95.40
2018-01-11T18:15:08.036Z,94.81
2018-01-11T18:17:36.426Z,94.06
2018-01-11T18:20:04.790Z,93.89
2018-01-11T18:22:33.411Z,93.60
2018-01-11T18:25:01.832Z,93.09
2018-01-11T18:27:30.964Z,93.40
2018-01-11T18:29:59.292Z,94.74
2018-01-11T18:32:27.676Z,94.35
2018-01-11T18:34:56.278Z,96.67
2018-01-11T18:37:25.271Z,99.37
2018-01-11T18:39:53.770Z,100.00
2018-01-11T18:42:22.606Z,100.00
2018-01-11T18:44:52.463Z,100.00
2018-01-11T18:47:21.929Z,99.19
2018-01-11T18:49:51.785Z,98.18
2018-01-11T18:52:21.016Z,97.36
2018-01-11T18:54:51.540Z,96.84
2018-01-11T18:57:21.820Z,95.66
2018-01-11T18:59:51.285Z,95.83
2018-01-11T19:02:21.053Z,95.24
2018-01-11T19:04:50.820Z,94.20
2018-01-11T19:07:20.593Z,94.17
2018-01-11T19:09:50.486Z,94.17
2018-01-11T19:12:20.293Z,94.94
2018-01-11T19:14:50.992Z,95.34
2018-01-11T19:17:20.770Z,94.96
2018-01-11T19:19:50.610Z,94.55
2018-01-11T19:22:21.264Z,94.45
2018-01-11T19:24:51.097Z,94.21
2018-01-11T19:27:21.749Z,94.08
2018-01-11T19:29:51.610Z,94.32
2018-01-11T19:32:21.426Z,94.40
2018-01-11T19:34:51.283Z,93.99
2018-01-11T19:37:21.178Z,93.85
2018-01-11T19:39:51.034Z,93.74
2018-01-11T19:42:20.948Z,93.80
2018-01-11T19:44:50.901Z,95.96
2018-01-11T19:47:21.640Z,96.25
2018-01-11T19:49:51.523Z,96.47
2018-01-11T19:52:21.575Z,95.87
2018-01-11T19:54:51.479Z,96.00
2018-01-11T19:57:21.361Z,95.37
2018-01-11T19:59:51.175Z,94.77
2018-01-11T20:02:20.993Z,94.62
2018-01-11T20:04:50.910Z,94.93
2018-01-11T20:07:21.510Z,94.27
2018-01-11T20:09:51.466Z,94.62
2018-01-11T20:12:21.355Z,94.48
2018-01-11T20:14:51.138Z,94.93
2018-01-11T20:17:21.019Z,95.98
2018-01-11T20:19:50.899Z,96.21
2018-01-11T20:22:21.898Z,95.99
2018-01-11T20:24:51.876Z,96.36
2018-01-11T20:43:26.844Z,99.31
2018-01-11T20:45:56.904Z,100.00
2018-01-11T20:48:27.460Z,100.00
2018-01-11T20:51:02.818Z,99.54
2018-01-11T20:53:32.746Z,99.44
2018-01-11T20:56:02.769Z,98.85
2018-01-11T20:58:32.984Z,98.30
2018-01-11T21:01:03.253Z,97.24
2018-01-11T21:03:33.178Z,96.92
2018-01-11T21:06:03.040Z,96.71
2018-01-11T21:08:33.597Z,96.20
2018-01-11T21:27:08.697Z,96.29
2018-01-11T21:29:38.708Z,97.26
2018-01-11T21:32:08.600Z,97.08
2018-01-11T21:34:38.470Z,97.03
2018-01-11T21:37:08.363Z,96.58
2018-01-11T21:39:38.220Z,96.14
2018-01-11T21:42:08.214Z,96.08
2018-01-11T21:44:38.135Z,97.84
2018-01-11T21:47:08.261Z,99.65
2018-01-11T21:49:39.907Z,99.52
2018-01-11T21:52:09.818Z,99.26
2018-01-11T21:54:39.666Z,98.47
2018-01-11T21:57:09.501Z,98.72
2018-01-11T21:59:39.484Z,98.40
2018-01-11T22:02:09.434Z,97.80
2018-01-11T22:04:39.245Z,97.80
2018-01-11T22:07:09.155Z,98.58
2018-01-11T22:09:38.969Z,99.01
2018-01-11T22:12:09.604Z,98.52
2018-01-11T22:14:39.474Z,97.94
2018-01-11T22:17:09.588Z,97.79
2018-01-11T22:19:39.709Z,97.48
2018-01-11T22:22:09.502Z,96.81
2018-01-11T22:24:39.359Z,96.52
2018-01-11T22:27:09.288Z,97.03
2018-01-11T22:29:39.049Z,97.63
2018-01-11T22:32:08.969Z,97.23
2018-01-11T22:34:38.762Z,96.74
2018-01-11T22:37:08.609Z,95.91
2018-01-11T22:39:37.865Z,97.06
2018-01-11T22:42:08.692Z,96.99
2018-01-11T22:44:38.265Z,96.16
2018-01-11T22:47:06.837Z,95.97
2018-01-11T22:49:36.207Z,95.90
2018-01-11T22:52:04.681Z,95.90
2018-01-11T22:54:33.177Z,96.06
2018-01-11T22:57:01.508Z,95.62
2018-01-11T22:59:29.844Z,95.77
2018-01-11T23:01:58.183Z,95.48
2018-01-11T23:04:26.495Z,95.42
2018-01-11T23:06:54.805Z,95.36
2018-01-11T23:09:23.166Z,95.19
2018-01-11T23:11:51.945Z,95.20
2018-01-11T23:14:20.270Z,94.99
2018-01-11T23:16:48.588Z,94.77
2018-01-11T23:19:16.929Z,94.71
2018-01-11T23:21:45.258Z,94.75
2018-01-11T23:24:13.580Z,94.58
2018-01-11T23:26:41.909Z,94.50
2018-01-11T23:29:10.235Z,94.98
2018-01-11T23:31:38.600Z,95.25
2018-01-11T23:34:06.929Z,94.87
2018-01-11T23:36:35.262Z,94.85
2018-01-11T23:39:03.593Z,95.24
2018-01-11T23:41:31.934Z,95.39
2018-01-11T23:44:00.259Z,95.29
2018-01-11T23:46:28.588Z,95.63
2018-01-11T23:48:57.688Z,95.53
2018-01-11T23:51:26.021Z,96.13
2018-01-11T23:53:54.358Z,98.29
2018-01-11T23:56:22.697Z,98.16
2018-01-11T23:58:52.622Z,98.09
